Airfield :







YOU CAN JOIN US ON...

 
LOGIN :

Register | Disclaimer

   EN    FR    IT 

 









Legend :    VFR   Marginal VFR   IFR   Intensive IFR   Very Intensive IFR
Visi :
Ceiling :
>= 8 km
>= 3000ft
5 to 8 km
1000 to 3000 ft
1500m to 5 km
500 to 1000 ft
800 to 1500m
200 to 500 ft
< 800m
< 200 ft
Symbols :   Thunderstorms  Fog  Heavy snow  Heavy precipitations  Wind > 20 kt







- Airport Elevation : 271 ft


KBAF - Barnes Municipal

CURRENT METAR :
  • 222353Z 17003KT 10SM CLR 23/20 A2986 RMK AO2 SLP108 60000 T02330200 10317 20228 51005

EXPIRED METARs :
  • 222253Z 18003KT 10SM CLR 25/20 A2985 RMK AO2 SLP107 T02500200
  • 222153Z 24006KT 10SM OVC090 27/18 A2986 RMK AO2 RAB02E11 SLP108 P0000 T02670178

TAF KBAF
Valid from the 23 at 00:00 until the 24 at 00:00 UTC


222324Z 2300/2324 VRB03KT P6SM BKN120
FM230500 33003KT P6SM VCSH OVC060
FM231100 33003KT P6SM SCT090
FM231400 34007KT P6SM FEW250
No reported NOTAMs for that airfield.



MET'MAP, your aeronautical weather chart ! - Copyright ORBIFLY December 2007 - Disclaimer

ORBIFLY MET'MAP TEAM :

Programming & Development : Alexandra Zaïnal
Concept & Development : Baudouin d'Aumeries
Co-Development & Prog : Marc-Olivier Méhu
Technical & hardware support : Manuel Goepfert

Contact : metmap@orbifly.com




SOURCES & CREDITS :

   NOAA